Terminal Aerodrome Forecast
Issued by NWS Shreveport, LA

Home | Current Version | Previous Version | Text Only | Print | Product List | Glossary On
Versions: 1 2 3 4 5 6 7 8 9 10 11 12 13 14 15 16 17 18
029
FTUS44 KSHV 240543
TAFTYR
TAF
KTYR 240543Z 2406/2506 18012KT P6SM SKC
     FM241000 20011KT P6SM BKN025
     FM241300 21010KT P6SM BKN015
      TEMPO 2415/2418 27012G20KT SCT015
     FM241800 30012G20KT P6SM SCT030
     FM242100 32011KT P6SM SKC
     FM250000 33007KT P6SM SKC=

USA.gov is the U.S. government's official web portal to all federal, state and local government web resources and services.